North Battleford Airport
CYQW : now visible

Airfield :











YOU CAN JOIN US ON...

 
LOGIN :

Register | Disclaimer

   EN    FR    IT 

 









Legend :    VFR   Marginal VFR   IFR   Intensive IFR   Very Intensive IFR
Visi :
Ceiling :
>= 8 km
>= 3000ft
5 to 8 km
1000 to 3000 ft
1500m to 5 km
500 to 1000 ft
800 to 1500m
200 to 500 ft
< 800m
< 200 ft
Symbols :   Thunderstorms  Fog  Heavy snow  Heavy precipitations  Wind > 20 kt






- Airport Elevation : 1799 ft
- IATA code : YQW


CYQW - North Battleford

CURRENT METAR :
  • 060335Z AUTO 09014KT 9SM -SN OVC026 M07/M09 A2989 RMK SLP163

EXPIRED METARs :
  • 060320Z AUTO 09015KT 2 1/4SM -SN OVC020 M07/M09 A2989 RMK SLP163
  • 060302Z AUTO 10015KT 1 3/4SM -SN OVC016 M07/M09 A2990 RMK SLP166
  • 060235Z AUTO 10015KT 5SM -SN BKN024 OVC048 M07/M09 A2990 RMK SLP167
  • 060200Z AUTO 10012KT 9SM -SN BKN032 OVC048 M07/M09 A2990 RMK SLP170
  • 060122Z AUTO 10014KT 9SM -SN SCT042 OVC070 M07/M09 A2991 RMK SLP173
  • 060100Z AUTO 10013KT 9SM SCT016 BKN070 M07/M09 A2992 RMK SLP174
  • 060053Z AUTO 11013KT 9SM SCT016 BKN075 M07/M09 A2992 RMK SLP177

TAF AMD TAF CYQW
Valid from the 06 at 02:00 until the 06 at 12:00 UTC


060217Z 0602/0612 10015G25KT P6SM SCT015 OVC040
TEMPO 0602/0603 4SM -SHSN OVC015
FM060300 10015G25KT 2SM -SN OVC008
TEMPO 0603/0609 6SM -SN OVC012
FM060900 10012KT 3SM -SN OVC010 RMK FCST BASED ON AUTO OBS. NXT FCST BY 060600Z



MET'MAP, your aeronautical weather chart ! - Copyright ORBIFLY December 2007 - Disclaimer

ORBIFLY MET'MAP TEAM :

Programming & Development : Alexandra Zaïnal
Concept & original design : Baudouin d'Aumeries
Assistance for programming : Marc-Olivier Méhu
Technical & hardware support : Manuel Goepfert

Contact : metmap@orbifly.com




SOURCES & CREDITS :

   NOAA       Earth
Advisory